Time;durP1;ratioP1;P1;durP2;ratioP2;P2;SDS_P1;SDS_P2;PMS_P1;PMS_P2;Temp;Humidity;BMP_temperature;BMP_pressure;BME280_temperature;BME280_humidity;BME280_pressure;Samples;Min_cycle;Max_cycle;Signal;HPM_P1;HPM_P2
2022/06/21 00:00:29;;;;;;;1.47;1.23;;;;;;;10.65;100.00;97004.28;5041862;28;20297;-65
2022/06/21 00:03:01;;;;;;;1.30;1.30;;;;;;;10.62;100.00;97002.03;4994981;28;21049;-64
2022/06/21 00:05:34;;;;;;;1.70;1.60;;;;;;;10.68;100.00;96992.50;5044367;28;20324;-65
2022/06/21 00:08:03;;;;;;;1.17;1.17;;;;;;;10.50;100.00;96999.06;5040382;28;21032;-63
2022/06/21 00:10:34;;;;;;;1.87;1.77;;;;;;;10.39;100.00;97002.16;5028459;28;20296;-64
2022/06/21 00:13:03;;;;;;;1.37;1.37;;;;;;;10.37;100.00;97012.13;5037890;28;21505;-63
2022/06/21 00:15:31;;;;;;;1.63;1.53;;;;;;;10.44;100.00;97006.94;5044766;28;20276;-65
2022/06/21 00:18:00;;;;;;;2.43;1.27;;;;;;;10.40;100.00;97017.09;4998683;28;22656;-64
2022/06/21 00:20:28;;;;;;;1.23;1.20;;;;;;;10.31;100.00;97012.88;5040051;28;20234;-64
2022/06/21 00:26:40;;;;;;;1.47;1.37;;;;;;;10.06;100.00;97005.25;5018489;28;20268;-66
2022/06/21 00:29:08;;;;;;;1.63;1.20;;;;;;;9.96;100.00;97008.19;5041839;28;20215;-64
2022/06/21 00:31:38;;;;;;;1.57;1.20;;;;;;;9.99;100.00;97000.69;5022328;28;21140;-64
2022/06/21 00:34:11;;;;;;;1.43;1.33;;;;;;;10.05;100.00;97000.97;5009087;28;20337;-64
2022/06/21 00:36:40;;;;;;;1.70;1.60;;;;;;;10.12;100.00;96999.22;5040906;28;20194;-64
2022/06/21 00:39:10;;;;;;;1.40;1.40;;;;;;;10.06;100.00;96998.16;5046770;28;20266;-65
2022/06/21 00:41:43;;;;;;;1.70;1.60;;;;;;;10.00;100.00;96996.22;5024668;28;20833;-65
2022/06/21 00:44:15;;;;;;;1.20;1.17;;;;;;;9.89;100.00;96999.34;5041120;28;20230;-65
2022/06/21 00:46:46;;;;;;;1.20;1.20;;;;;;;9.88;100.00;96997.69;5040207;28;20199;-65
2022/06/21 00:49:20;;;;;;;1.50;1.50;;;;;;;9.87;100.00;97001.34;5022608;28;20229;-65
2022/06/21 00:51:50;;;;;;;1.50;1.50;;;;;;;9.70;100.00;96991.78;5039908;28;20207;-64
2022/06/21 00:54:24;;;;;;;1.50;1.40;;;;;;;9.61;100.00;96992.88;5043126;28;20242;-65
2022/06/21 00:56:58;;;;;;;1.47;1.37;;;;;;;9.68;100.00;96993.78;5045508;28;20771;-66
2022/06/21 00:59:31;;;;;;;1.40;1.40;;;;;;;9.62;100.00;96988.41;5028394;28;20207;-63
2022/06/21 01:02:02;;;;;;;1.70;1.60;;;;;;;9.88;100.00;96987.94;5045635;28;20351;-64
2022/06/21 01:04:35;;;;;;;1.77;1.63;;;;;;;9.55;100.00;96993.63;5000204;28;20439;-64
2022/06/21 01:07:08;;;;;;;1.70;1.60;;;;;;;9.34;100.00;96989.03;5046914;28;20204;-63
2022/06/21 01:09:39;;;;;;;1.70;1.60;;;;;;;9.34;100.00;96987.19;5043883;28;20284;-62
2022/06/21 01:12:13;;;;;;;2.07;1.90;;;;;;;9.31;100.00;96990.22;5040711;28;20195;-64
2022/06/21 01:14:45;;;;;;;1.93;1.83;;;;;;;9.21;100.00;96995.75;5024708;28;20211;-62
2022/06/21 01:17:14;;;;;;;1.33;1.33;;;;;;;9.21;100.00;96994.94;5045305;28;20206;-64
2022/06/21 01:19:45;;;;;;;1.77;1.73;;;;;;;9.10;100.00;96993.56;5027866;28;20290;-65
2022/06/21 01:22:20;;;;;;;1.47;1.37;;;;;;;9.01;100.00;97010.47;5011377;28;20203;-65
2022/06/21 01:25:00;;;;;;;1.87;1.77;;;;;;;8.96;100.00;97003.91;5043478;28;20231;-64
2022/06/21 01:27:30;;;;;;;2.10;1.67;;;;;;;8.92;100.00;97007.91;5042752;28;20884;-64
2022/06/21 01:29:58;;;;;;;1.93;1.83;;;;;;;8.87;100.00;97006.78;5028299;28;20215;-65
2022/06/21 01:32:27;;;;;;;1.63;1.57;;;;;;;8.81;100.00;97003.03;5041755;28;20264;-63
2022/06/21 01:34:56;;;;;;;1.73;1.73;;;;;;;8.76;100.00;97010.66;5028165;28;20229;-64
2022/06/21 01:37:27;;;;;;;1.47;1.47;;;;;;;8.68;100.00;97015.03;4992786;28;20280;-64
2022/06/21 01:39:59;;;;;;;2.10;2.00;;;;;;;8.67;100.00;97007.25;5005097;28;20294;-64
2022/06/21 01:42:30;;;;;;;2.30;2.20;;;;;;;8.58;100.00;97005.69;5044149;28;20242;-63
2022/06/21 01:45:02;;;;;;;2.33;2.23;;;;;;;8.51;100.00;97016.09;5020689;28;20242;-65
2022/06/21 01:47:35;;;;;;;2.73;1.97;;;;;;;8.46;100.00;97010.50;5046715;28;20195;-66
2022/06/21 01:50:07;;;;;;;1.90;1.80;;;;;;;8.47;100.00;97010.34;5027501;28;20326;-65
2022/06/21 01:52:37;;;;;;;2.10;2.00;;;;;;;8.44;100.00;97010.69;5043482;28;20966;-64
2022/06/21 01:55:09;;;;;;;1.80;1.80;;;;;;;8.36;100.00;97014.19;5012765;28;20697;-63
2022/06/21 01:57:40;;;;;;;1.93;1.93;;;;;;;8.38;100.00;97025.41;5046243;28;20260;-64
2022/06/21 02:00:09;;;;;;;3.77;1.83;;;;;;;8.36;100.00;97016.84;5042117;28;20207;-65
2022/06/21 02:02:39;;;;;;;2.13;1.80;;;;;;;8.49;100.00;97011.03;5046775;28;20249;-65
2022/06/21 02:05:12;;;;;;;3.97;2.40;;;;;;;8.72;100.00;97004.09;5024411;28;21196;-64
2022/06/21 02:07:43;;;;;;;1.70;1.60;;;;;;;8.87;100.00;97007.59;5046396;28;20685;-64
2022/06/21 02:10:20;;;;;;;1.73;1.73;;;;;;;8.88;100.00;96996.03;5047055;28;20808;-65
2022/06/21 02:12:51;;;;;;;1.40;1.40;;;;;;;8.54;100.00;96997.31;5003524;28;20312;-63
2022/06/21 02:15:26;;;;;;;1.97;1.87;;;;;;;8.46;100.00;96994.66;5041369;28;20223;-65
2022/06/21 02:17:56;;;;;;;2.00;1.83;;;;;;;8.31;100.00;96992.78;5019557;28;20975;-64
2022/06/21 02:20:30;;;;;;;1.53;1.53;;;;;;;8.30;100.00;96996.41;5041402;28;20199;-64
2022/06/21 02:22:59;;;;;;;1.90;1.80;;;;;;;8.19;100.00;96983.63;5025891;28;20199;-64
2022/06/21 02:25:27;;;;;;;2.67;2.47;;;;;;;8.32;100.00;96986.50;5043672;28;20231;-65
2022/06/21 02:28:00;;;;;;;2.20;2.10;;;;;;;8.22;100.00;96986.72;4981646;28;20211;-65
2022/06/21 02:30:29;;;;;;;2.23;2.13;;;;;;;8.27;100.00;96983.56;5041330;28;20272;-66
2022/06/21 02:33:00;;;;;;;2.20;2.10;;;;;;;8.30;100.00;96985.03;5040938;28;20222;-65
2022/06/21 02:35:31;;;;;;;2.20;2.10;;;;;;;8.30;100.00;96985.84;5037693;28;20741;-63
2022/06/21 02:38:01;;;;;;;2.17;2.07;;;;;;;8.23;100.00;96987.56;5003652;28;20219;-63
2022/06/21 02:40:32;;;;;;;2.20;2.00;;;;;;;8.20;100.00;96985.28;5016775;28;20557;-65
2022/06/21 02:43:04;;;;;;;2.42;2.33;;;;;;;8.21;100.00;96979.00;5001932;28;20478;-62
2022/06/21 02:45:35;;;;;;;2.30;2.20;;;;;;;8.22;100.00;96988.56;5019944;28;20830;-60
2022/06/21 02:48:09;;;;;;;2.07;1.97;;;;;;;8.20;100.00;96986.06;5036191;28;20240;-62
2022/06/21 02:50:42;;;;;;;2.20;1.60;;;;;;;8.09;100.00;96983.84;5019143;28;20206;-64
2022/06/21 02:53:17;;;;;;;1.83;1.73;;;;;;;8.24;100.00;96987.38;5022501;28;20502;-62
2022/06/21 02:55:52;;;;;;;2.27;2.00;;;;;;;8.24;100.00;96983.91;5047527;28;20265;-62
2022/06/21 02:58:26;;;;;;;2.00;1.80;;;;;;;8.09;100.00;96989.09;4993787;28;20390;-65
2022/06/21 03:00:55;;;;;;;1.80;1.70;;;;;;;7.96;100.00;96987.03;5043360;28;20203;-62
2022/06/21 03:03:26;;;;;;;1.70;1.70;;;;;;;7.86;100.00;96984.59;5043438;28;20905;-64
2022/06/21 03:05:57;;;;;;;1.93;1.83;;;;;;;7.86;100.00;96992.50;5042609;28;20254;-62
2022/06/21 03:08:26;;;;;;;2.33;1.80;;;;;;;7.91;100.00;96992.00;5021964;28;20439;-62
2022/06/21 03:10:54;;;;;;;2.07;1.97;;;;;;;8.05;100.00;96993.91;5039033;28;20207;-62
2022/06/21 03:13:26;;;;;;;1.90;1.80;;;;;;;8.13;100.00;97000.13;4995987;28;21372;-64
2022/06/21 03:15:58;;;;;;;2.57;2.37;;;;;;;8.11;100.00;96992.41;5045118;28;20558;-62
2022/06/21 03:18:30;;;;;;;2.93;2.73;;;;;;;8.17;100.00;97002.25;5041169;28;20754;-62
2022/06/21 03:20:59;;;;;;;2.70;2.23;;;;;;;8.10;100.00;96998.66;5042562;28;20487;-63
2022/06/21 03:23:28;;;;;;;2.40;2.30;;;;;;;8.03;100.00;96995.09;5019948;28;20865;-65
2022/06/21 03:25:59;;;;;;;2.03;1.93;;;;;;;7.95;100.00;96998.56;5044923;28;20674;-62
2022/06/21 03:28:31;;;;;;;2.10;2.00;;;;;;;7.86;100.00;96989.06;5038717;28;20465;-64
2022/06/21 03:31:07;;;;;;;2.33;2.23;;;;;;;7.85;100.00;96996.13;4991206;28;20313;-62
2022/06/21 03:33:37;;;;;;;2.60;2.40;;;;;;;7.84;100.00;96996.31;5039962;28;20204;-65
2022/06/21 03:36:08;;;;;;;2.67;2.17;;;;;;;7.73;100.00;96990.41;5035775;28;20335;-63
2022/06/21 03:38:37;;;;;;;4.47;2.40;;;;;;;7.71;100.00;96989.75;5040475;28;20244;-65
2022/06/21 03:43:57;;;;;;;2.33;2.23;;;;;;;7.83;100.00;96987.56;5044555;28;20245;-64
2022/06/21 03:46:31;;;;;;;2.20;2.10;;;;;;;7.81;100.00;96981.66;4952792;28;20211;-62
2022/06/21 03:49:04;;;;;;;2.80;2.60;;;;;;;7.82;100.00;96978.00;5042201;28;20230;-63
2022/06/21 03:51:35;;;;;;;2.13;2.03;;;;;;;7.79;100.00;96986.28;5024361;28;20238;-62
2022/06/21 03:54:09;;;;;;;2.60;2.50;;;;;;;7.81;100.00;96981.66;5040970;28;20328;-64
2022/06/21 03:56:42;;;;;;;3.03;2.77;;;;;;;7.84;100.00;96985.78;5023539;28;20371;-64
2022/06/21 03:59:17;;;;;;;2.33;2.23;;;;;;;7.92;100.00;96997.09;5042776;28;20261;-65
2022/06/21 04:01:52;;;;;;;2.60;2.40;;;;;;;8.03;100.00;97000.38;4994987;28;20781;-65
2022/06/21 04:04:27;;;;;;;2.63;2.43;;;;;;;8.21;100.00;97005.38;5041524;28;20306;-63
2022/06/21 04:07:00;;;;;;;2.47;2.27;;;;;;;8.36;100.00;97005.47;5037658;28;20301;-62
2022/06/21 04:09:33;;;;;;;2.67;2.57;;;;;;;8.64;100.00;97010.25;5038167;28;20203;-60
2022/06/21 04:12:08;;;;;;;2.30;2.20;;;;;;;8.70;100.00;97014.81;5047778;28;20242;-62
2022/06/21 04:14:40;;;;;;;2.80;2.70;;;;;;;8.86;100.00;97015.72;5021563;28;20541;-62
2022/06/21 04:17:12;;;;;;;3.27;2.97;;;;;;;9.02;100.00;97020.06;5039386;28;20683;-62
2022/06/21 04:19:43;;;;;;;3.13;3.00;;;;;;;9.16;100.00;97021.91;4993445;28;21015;-60
2022/06/21 04:22:20;;;;;;;3.20;3.00;;;;;;;9.19;100.00;97015.44;5037746;28;20480;-62
2022/06/21 04:24:53;;;;;;;3.20;3.00;;;;;;;9.26;100.00;97011.88;5040153;28;20316;-59
2022/06/21 04:27:28;;;;;;;3.50;3.30;;;;;;;9.44;100.00;97016.03;5039460;28;20643;-62
2022/06/21 04:30:02;;;;;;;3.13;2.93;;;;;;;9.63;100.00;97016.47;5020917;28;20199;-61
2022/06/21 04:32:40;;;;;;;3.43;3.23;;;;;;;9.87;100.00;97014.56;5037910;28;20199;-64
2022/06/21 04:35:14;;;;;;;2.83;2.63;;;;;;;9.97;100.00;97015.94;4989695;28;20514;-62
2022/06/21 04:37:46;;;;;;;3.30;3.10;;;;;;;9.98;100.00;97014.94;5040883;28;20435;-62
2022/06/21 04:40:19;;;;;;;2.90;2.60;;;;;;;10.19;100.00;97010.69;5038774;28;20425;-62
2022/06/21 04:42:52;;;;;;;3.00;2.87;;;;;;;10.36;100.00;97013.13;5034265;28;20218;-65
2022/06/21 04:45:27;;;;;;;3.90;3.27;;;;;;;10.64;100.00;97015.91;5028316;28;20322;-64
2022/06/21 04:48:13;;;;;;;3.33;3.13;;;;;;;10.64;100.00;97015.91;5033904;28;20299;-64
2022/06/21 04:50:45;;;;;;;4.13;3.93;;;;;;;10.79;100.00;97018.50;5035083;28;20259;-63
2022/06/21 04:53:17;;;;;;;3.17;2.97;;;;;;;11.00;100.00;97014.22;5037577;28;20865;-63
2022/06/21 04:55:53;;;;;;;3.47;3.27;;;;;;;11.17;100.00;97020.03;5043029;28;20234;-65
2022/06/21 04:58:21;;;;;;;2.83;2.73;;;;;;;11.29;100.00;97010.56;5037043;28;20451;-63
2022/06/21 05:00:51;;;;;;;3.87;3.00;;;;;;;11.48;100.00;97007.44;5031289;28;20277;-61
2022/06/21 05:03:27;;;;;;;3.13;2.93;;;;;;;11.50;100.00;97000.09;5036884;28;20199;-64
2022/06/21 05:05:55;;;;;;;3.87;3.50;;;;;;;11.60;100.00;97003.22;4998185;28;20326;-64
2022/06/21 05:08:24;;;;;;;3.50;3.20;;;;;;;11.77;100.00;97000.25;5037804;28;20558;-61
2022/06/21 05:10:55;;;;;;;3.53;3.23;;;;;;;11.84;100.00;96988.63;5041739;28;20664;-63
2022/06/21 05:13:27;;;;;;;3.33;3.13;;;;;;;12.21;100.00;96991.09;5042973;28;20416;-65
2022/06/21 05:15:57;;;;;;;3.40;3.20;;;;;;;12.23;100.00;96997.00;5027601;28;20233;-62
2022/06/21 05:18:31;;;;;;;4.33;3.93;;;;;;;12.32;100.00;96997.66;5040721;28;20645;-65
2022/06/21 05:21:01;;;;;;;3.87;3.03;;;;;;;12.57;100.00;96997.09;5001825;28;20208;-64
2022/06/21 05:23:30;;;;;;;3.27;2.87;;;;;;;12.53;100.00;97003.84;5042248;28;20380;-63
2022/06/21 05:26:01;;;;;;;3.90;3.50;;;;;;;12.60;100.00;96999.34;5041190;28;20333;-62
2022/06/21 05:28:35;;;;;;;3.40;3.10;;;;;;;12.50;100.00;96993.59;5038722;28;20278;-63
2022/06/21 05:31:09;;;;;;;3.23;2.93;;;;;;;12.77;100.00;96988.34;5023762;28;21660;-64
2022/06/21 05:33:41;;;;;;;3.40;3.20;;;;;;;12.86;100.00;96984.47;5042985;28;20777;-61
2022/06/21 05:36:12;;;;;;;2.87;2.73;;;;;;;13.03;100.00;96992.88;4998695;28;20240;-64
2022/06/21 05:38:49;;;;;;;3.40;3.10;;;;;;;12.96;100.00;96984.88;5041748;28;20290;-64
2022/06/21 05:41:30;;;;;;;2.70;2.50;;;;;;;13.24;100.00;96978.53;5034902;28;20451;-64
2022/06/21 05:44:04;;;;;;;2.87;2.67;;;;;;;13.29;100.00;96969.94;5042486;28;20253;-65
2022/06/21 05:46:38;;;;;;;3.73;3.00;;;;;;;13.44;100.00;96970.56;5030195;28;20226;-64
2022/06/21 05:49:10;;;;;;;3.10;2.90;;;;;;;13.50;100.00;96973.41;5038238;28;20208;-64
2022/06/21 05:51:38;;;;;;;3.70;3.37;;;;;;;13.63;100.00;96961.91;5005084;28;20617;-61
2022/06/21 05:54:10;;;;;;;2.70;2.50;;;;;;;13.83;100.00;96956.53;4997805;28;20237;-64
2022/06/21 05:56:39;;;;;;;2.73;2.53;;;;;;;13.93;100.00;96950.75;5030866;28;20226;-66
2022/06/21 05:59:09;;;;;;;2.60;2.40;;;;;;;14.08;100.00;96956.63;5043336;28;20258;-62
2022/06/21 06:01:43;;;;;;;2.80;2.60;;;;;;;14.15;100.00;96961.94;5028784;28;20578;-67
2022/06/21 06:04:15;;;;;;;3.50;2.53;;;;;;;14.27;100.00;96965.56;5046098;28;20321;-62
2022/06/21 06:06:44;;;;;;;2.43;2.23;;;;;;;14.55;100.00;96974.22;5046564;28;20401;-62
2022/06/21 06:09:16;;;;;;;2.10;2.00;;;;;;;14.71;100.00;96970.25;5041030;28;20654;-64
2022/06/21 06:12:01;;;;;;;3.83;3.00;;;;;;;15.03;100.00;96968.38;5021912;28;20566;-65
2022/06/21 06:14:37;;;;;;;2.23;2.13;;;;;;;14.97;100.00;96963.09;5039183;28;20947;-63
2022/06/21 06:17:17;;;;;;;3.37;2.27;;;;;;;14.85;100.00;96962.97;5047560;28;20317;-62
2022/06/21 06:19:50;;;;;;;2.50;2.30;;;;;;;14.81;100.00;96975.09;5035280;28;20382;-65
2022/06/21 06:22:22;;;;;;;2.50;2.30;;;;;;;14.98;100.00;96962.88;5040947;28;20293;-63
2022/06/21 06:24:55;;;;;;;3.77;2.27;;;;;;;14.89;100.00;96962.34;5002440;28;20250;-63
2022/06/21 06:27:28;;;;;;;2.67;2.50;;;;;;;15.03;100.00;96973.72;5046576;28;20257;-64
2022/06/21 06:30:00;;;;;;;3.33;2.40;;;;;;;15.21;100.00;96976.66;5043849;28;20872;-61
2022/06/21 06:32:33;;;;;;;2.43;2.20;;;;;;;15.16;100.00;96970.13;5027857;28;20222;-65
2022/06/21 06:35:02;;;;;;;5.00;2.40;;;;;;;15.31;100.00;96967.09;5038312;28;20274;-65
2022/06/21 06:37:36;;;;;;;2.67;2.47;;;;;;;15.42;100.00;96972.78;5039158;28;20415;-64
2022/06/21 06:40:06;;;;;;;2.50;2.30;;;;;;;15.77;100.00;96977.56;5039565;28;20284;-66
2022/06/21 06:42:38;;;;;;;2.20;2.10;;;;;;;15.83;100.00;96982.00;4999454;28;20406;-62
2022/06/21 06:45:14;;;;;;;2.90;2.37;;;;;;;16.00;100.00;96981.41;5042955;28;20271;-65
2022/06/21 06:47:47;;;;;;;2.87;2.40;;;;;;;16.13;100.00;96985.78;5031639;28;20245;-65
2022/06/21 06:50:18;;;;;;;2.17;2.07;;;;;;;16.23;100.00;96985.25;5041700;28;20579;-65
2022/06/21 06:52:49;;;;;;;2.60;2.40;;;;;;;16.41;100.00;96985.22;5040431;28;20402;-61
2022/06/21 06:55:21;;;;;;;2.80;2.60;;;;;;;16.28;100.00;96980.06;5041380;28;20225;-66
2022/06/21 06:58:16;;;;;;;2.90;2.73;;;;;;;16.13;100.00;96973.25;5004621;28;20611;-65
2022/06/21 07:00:50;;;;;;;2.57;2.40;;;;;;;16.38;100.00;96987.53;5040515;28;20488;-65
2022/06/21 07:03:21;;;;;;;2.70;2.60;;;;;;;16.38;100.00;96988.34;5039810;28;20270;-66
2022/06/21 07:05:52;;;;;;;4.37;3.13;;;;;;;16.55;100.00;96995.75;5046022;28;20326;-62
2022/06/21 07:08:26;;;;;;;2.90;2.70;;;;;;;16.64;100.00;96997.06;5037934;28;20665;-62
2022/06/21 07:10:56;;;;;;;3.13;2.83;;;;;;;16.45;100.00;97006.97;5043475;28;20668;-65
2022/06/21 07:13:25;;;;;;;3.93;2.73;;;;;;;16.53;100.00;97001.31;5003148;28;20210;-65
2022/06/21 07:15:56;;;;;;;3.37;3.10;;;;;;;16.73;100.00;96998.34;5047341;28;20264;-61
2022/06/21 07:18:29;;;;;;;6.30;2.80;;;;;;;16.71;100.00;97005.78;5035669;28;20605;-65
2022/06/21 07:21:05;;;;;;;2.83;2.60;;;;;;;16.90;100.00;97005.75;5043277;28;20237;-66
2022/06/21 07:23:34;;;;;;;3.20;2.80;;;;;;;16.98;100.00;96996.59;5038816;28;20428;-62
2022/06/21 07:26:06;;;;;;;3.00;2.73;;;;;;;17.05;100.00;96997.31;5040559;28;20552;-64
2022/06/21 07:28:37;;;;;;;3.17;2.87;;;;;;;17.11;100.00;97008.94;4999268;28;20311;-64
2022/06/21 07:31:10;;;;;;;2.77;2.57;;;;;;;17.17;98.86;97005.34;5039842;28;20237;-64
2022/06/21 07:33:42;;;;;;;2.60;2.40;;;;;;;17.45;97.98;97006.53;5039543;28;20343;-63
2022/06/21 07:36:19;;;;;;;4.87;2.67;;;;;;;17.63;100.00;97000.25;5028573;28;20227;-63
2022/06/21 07:38:50;;;;;;;3.47;2.70;;;;;;;17.59;100.00;97007.91;5036959;28;20316;-63
2022/06/21 07:41:23;;;;;;;3.37;3.17;;;;;;;17.56;100.00;97007.59;5038537;28;21060;-62
2022/06/21 07:43:54;;;;;;;4.60;2.77;;;;;;;17.40;98.76;96993.03;5000607;28;20792;-64
2022/06/21 07:46:27;;;;;;;2.60;2.40;;;;;;;17.82;100.00;96984.06;5042932;28;20320;-64
2022/06/21 07:49:01;;;;;;;2.67;2.47;;;;;;;17.87;86.53;96984.94;5048305;28;20218;-59
2022/06/21 07:51:33;;;;;;;2.37;1.90;;;;;;;17.78;70.24;96972.97;5025146;28;20239;-63
2022/06/21 07:54:04;;;;;;;2.87;2.43;;;;;;;17.86;71.05;96974.50;5039940;28;21062;-66
2022/06/21 07:56:35;;;;;;;2.47;2.33;;;;;;;17.89;78.97;96971.34;5040777;28;20845;-65
2022/06/21 07:59:05;;;;;;;2.93;2.30;;;;;;;18.11;85.48;96970.72;5000002;28;20225;-64
2022/06/21 08:07:15;;;;;;;2.50;2.40;;;;;;;18.15;79.57;96967.31;5044033;28;20191;-64
2022/06/21 08:09:48;;;;;;;3.23;2.70;;;;;;;18.02;75.30;96968.41;5037863;28;20666;-64
2022/06/21 08:12:17;;;;;;;3.50;2.10;;;;;;;18.16;72.76;96966.28;5044124;28;20752;-65
2022/06/21 08:14:45;;;;;;;3.33;2.47;;;;;;;18.07;72.00;96978.44;5039483;28;20321;-65
2022/06/21 08:17:20;;;;;;;3.40;2.30;;;;;;;18.02;77.72;96984.50;4996139;28;20225;-62
2022/06/21 08:19:53;;;;;;;2.23;2.00;;;;;;;17.95;72.79;96981.09;5040510;28;20302;-64
2022/06/21 08:22:25;;;;;;;2.40;2.20;;;;;;;18.00;74.65;96983.88;5039014;28;20302;-62
2022/06/21 08:24:57;;;;;;;4.27;2.00;;;;;;;18.06;77.01;96987.53;5037758;28;20591;-64
2022/06/21 08:27:35;;;;;;;2.70;2.40;;;;;;;17.88;77.91;96978.53;5041706;28;20207;-66
2022/06/21 08:30:10;;;;;;;3.40;2.43;;;;;;;17.81;79.59;96979.75;5039993;28;20741;-64
2022/06/21 08:32:44;;;;;;;2.33;2.23;;;;;;;17.96;84.11;96984.59;5001420;28;20297;-65
2022/06/21 08:35:19;;;;;;;3.00;2.40;;;;;;;18.00;82.27;96977.72;5038835;28;20495;-67
2022/06/21 08:37:52;;;;;;;3.23;2.27;;;;;;;17.90;75.28;96978.31;5037641;28;21702;-65
2022/06/21 08:41:04;;;;;;;5.37;2.60;;;;;;;18.30;70.58;96998.16;5039661;28;20208;-65
2022/06/21 08:44:14;;;;;;;4.43;2.33;;;;;;;18.57;68.83;96998.44;5038137;28;20771;-66
2022/06/21 08:46:58;;;;;;;3.97;2.40;;;;;;;18.41;75.78;96991.13;4986868;28;20312;-62
2022/06/21 08:49:48;;;;;;;3.73;2.60;;;;;;;18.46;69.12;96996.59;5044978;28;20209;-64
2022/06/21 08:52:45;;;;;;;3.73;2.37;;;;;;;18.46;68.71;96988.53;5040130;28;20298;-63
2022/06/21 08:55:20;;;;;;;5.83;3.47;;;;;;;18.66;70.03;96980.06;5043765;28;20410;-63
2022/06/21 08:57:58;;;;;;;3.67;2.40;;;;;;;18.57;70.23;96992.25;5040206;28;20242;-64
2022/06/21 09:00:33;;;;;;;2.70;2.23;;;;;;;18.76;63.68;96987.47;5041036;28;21154;-63
2022/06/21 09:03:10;;;;;;;2.13;1.90;;;;;;;18.70;58.58;96970.47;4999940;28;20638;-63
2022/06/21 09:05:49;;;;;;;3.37;2.30;;;;;;;18.88;58.85;96971.31;5041213;28;20246;-64
2022/06/21 09:08:34;;;;;;;2.60;2.10;;;;;;;19.29;64.07;96981.91;5043565;28;20293;-62
2022/06/21 09:11:20;;;;;;;1.93;1.83;;;;;;;19.49;55.33;96986.78;5049021;28;20242;-65
2022/06/21 09:14:03;;;;;;;2.73;2.00;;;;;;;19.37;57.43;96982.31;5042934;28;20742;-64
2022/06/21 09:16:38;;;;;;;2.33;1.90;;;;;;;19.43;53.09;96980.53;5047349;28;20558;-65
2022/06/21 09:19:16;;;;;;;2.00;1.90;;;;;;;19.21;55.44;96989.31;5004304;28;20411;-64
2022/06/21 09:21:55;;;;;;;2.33;2.23;;;;;;;19.37;56.97;96986.91;5038734;28;20295;-66
2022/06/21 09:24:36;;;;;;;3.33;2.57;;;;;;;19.16;57.57;96977.72;5049239;28;20666;-62
2022/06/21 09:27:07;;;;;;;1.80;1.70;;;;;;;19.04;56.52;96975.09;5047121;28;20702;-64
2022/06/21 09:29:39;;;;;;;2.00;1.90;;;;;;;19.14;56.46;96961.03;5044053;28;20315;-63
2022/06/21 09:32:24;;;;;;;2.27;1.87;;;;;;;19.24;55.29;96956.59;5043828;28;20573;-64
2022/06/21 09:35:02;;;;;;;2.00;1.90;;;;;;;19.55;54.80;96950.88;4997083;28;20254;-67
2022/06/21 09:37:40;;;;;;;2.13;1.90;;;;;;;19.56;53.66;96949.81;5042716;28;20377;-63
2022/06/21 09:40:15;;;;;;;2.13;2.03;;;;;;;19.58;55.99;96941.50;5042711;28;20462;-65
2022/06/21 09:43:12;;;;;;;2.53;2.10;;;;;;;19.66;56.16;96952.66;5041433;28;20199;-63
2022/06/21 09:45:47;;;;;;;2.73;1.90;;;;;;;19.89;53.17;96958.03;5045256;28;20800;-64
2022/06/21 09:48:19;;;;;;;2.40;2.00;;;;;;;20.01;55.17;96948.00;5044720;28;20305;-63
2022/06/21 09:51:08;;;;;;;2.43;1.70;;;;;;;20.22;48.93;96949.03;5003570;28;20322;-64
2022/06/21 09:53:45;;;;;;;1.93;1.63;;;;;;;20.32;48.97;96951.03;5044096;28;20275;-63
2022/06/21 09:56:22;;;;;;;1.90;1.80;;;;;;;20.52;45.63;96952.31;5047875;28;20289;-62
2022/06/21 09:58:59;;;;;;;1.60;1.50;;;;;;;20.38;45.23;96943.84;5043626;28;20238;-62
2022/06/21 10:01:35;;;;;;;2.70;2.10;;;;;;;20.38;43.72;96941.94;5043498;28;20226;-62
2022/06/21 10:04:17;;;;;;;1.97;1.73;;;;;;;20.43;43.19;96941.19;5004894;28;21194;-64
2022/06/21 10:06:50;;;;;;;1.60;1.50;;;;;;;20.33;43.26;96936.50;5042873;28;20282;-64
2022/06/21 10:09:28;;;;;;;2.10;2.00;;;;;;;20.52;45.72;96942.34;4992175;28;20242;-63
2022/06/21 10:12:11;;;;;;;1.70;1.60;;;;;;;20.65;43.67;96945.72;5047353;28;20297;-64
2022/06/21 10:15:04;;;;;;;1.80;1.70;;;;;;;20.73;44.42;96939.88;5045173;28;20301;-65
2022/06/21 10:18:03;;;;;;;2.07;1.77;;;;;;;20.72;43.16;96942.81;5040541;28;20517;-67
2022/06/21 10:20:43;;;;;;;1.80;1.60;;;;;;;20.72;41.17;96946.31;5041965;28;20775;-64
2022/06/21 10:23:29;;;;;;;2.87;1.80;;;;;;;20.88;42.44;96930.31;5007194;28;20588;-65
2022/06/21 10:26:19;;;;;;;1.50;1.40;;;;;;;21.15;42.59;96913.28;5042174;28;20671;-64
2022/06/21 10:29:08;;;;;;;2.30;2.10;;;;;;;21.17;43.75;96903.06;5044578;28;20209;-63
2022/06/21 10:31:49;;;;;;;1.30;1.30;;;;;;;21.22;40.31;96903.09;5030355;28;20729;-65
2022/06/21 10:34:38;;;;;;;1.53;1.37;;;;;;;21.23;42.63;96902.03;5043691;28;20401;-66
2022/06/21 10:37:19;;;;;;;1.50;1.40;;;;;;;21.01;40.43;96897.56;5043632;28;20290;-66
2022/06/21 10:40:00;;;;;;;2.53;1.63;;;;;;;21.15;42.62;96900.63;5006858;28;20719;-65
2022/06/21 10:42:48;;;;;;;1.43;1.43;;;;;;;21.27;40.49;96903.13;5037252;28;20380;-65
2022/06/21 10:45:42;;;;;;;2.27;1.30;;;;;;;21.35;42.63;96882.97;5039340;28;20239;-61
2022/06/21 10:48:53;;;;;;;1.60;1.50;;;;;;;21.65;41.53;96868.84;5026718;28;20325;-65
2022/06/21 10:51:33;;;;;;;2.57;1.30;;;;;;;21.60;39.79;96866.09;5035468;28;20379;-64
2022/06/21 10:54:24;;;;;;;3.17;1.90;;;;;;;21.59;39.83;96863.66;5024636;28;20426;-63
2022/06/21 10:57:11;;;;;;;1.93;1.43;;;;;;;21.55;42.12;96860.69;5038856;28;20242;-66
2022/06/21 11:03:16;;;;;;;2.97;1.53;;;;;;;21.83;40.29;96856.78;5026436;28;20574;-66
2022/06/21 11:05:47;;;;;;;2.37;1.77;;;;;;;21.98;40.46;96847.94;5040666;28;20227;-66
2022/06/21 11:08:27;;;;;;;2.73;1.60;;;;;;;22.13;40.62;96854.41;5036618;28;20296;-63
2022/06/21 11:11:02;;;;;;;1.93;1.70;;;;;;;22.18;39.08;96856.31;5004210;28;20221;-67
2022/06/21 11:13:33;;;;;;;2.83;1.83;;;;;;;22.16;40.31;96858.47;5040120;28;20234;-64
2022/06/21 11:16:06;;;;;;;1.63;1.53;;;;;;;22.30;39.53;96867.66;5040737;28;20228;-64
2022/06/21 11:18:48;;;;;;;2.00;1.90;;;;;;;22.58;40.33;96843.97;5025464;28;20264;-66
2022/06/21 11:21:25;;;;;;;2.17;1.83;;;;;;;22.73;38.93;96839.63;5039949;28;20199;-64
2022/06/21 11:24:06;;;;;;;1.93;1.53;;;;;;;22.80;40.21;96846.41;5040217;28;20239;-65
2022/06/21 11:26:37;;;;;;;1.53;1.43;;;;;;;22.72;38.34;96838.84;4998609;28;20642;-65
2022/06/21 11:29:17;;;;;;;1.40;1.30;;;;;;;22.78;38.74;96836.97;5036968;28;20217;-64
2022/06/21 11:31:51;;;;;;;1.93;1.60;;;;;;;22.82;38.71;96836.13;5044058;28;20238;-61
2022/06/21 11:34:34;;;;;;;1.13;1.10;;;;;;;22.81;37.81;96837.22;5030605;28;20522;-64
2022/06/21 11:37:10;;;;;;;3.97;1.77;;;;;;;22.74;38.51;96836.69;5042269;28;20227;-65
2022/06/21 11:39:46;;;;;;;3.00;1.37;;;;;;;23.05;37.78;96831.25;5040718;28;20739;-66
2022/06/21 11:42:24;;;;;;;1.93;1.47;;;;;;;23.06;36.82;96826.63;5002698;28;20210;-63
2022/06/21 11:45:25;;;;;;;1.40;1.30;;;;;;;23.14;36.13;96831.50;5040884;28;20243;-64
2022/06/21 11:48:15;;;;;;;1.73;1.27;;;;;;;23.50;38.27;96825.19;5024619;28;20246;-66
2022/06/21 11:50:53;;;;;;;1.80;1.70;;;;;;;23.66;35.40;96825.94;5025606;28;20712;-65
2022/06/21 11:53:44;;;;;;;1.93;1.53;;;;;;;23.95;36.29;96827.94;5037040;28;20747;-64
2022/06/21 11:56:18;;;;;;;1.40;1.30;;;;;;;24.63;34.55;96829.13;4992842;28;20493;-65
2022/06/21 11:58:51;;;;;;;2.37;1.50;;;;;;;25.48;33.90;96830.75;5042360;28;20223;-64
2022/06/21 12:01:23;;;;;;;2.03;1.50;;;;;;;25.91;32.10;96819.06;5039416;28;20709;-64
2022/06/21 12:04:06;;;;;;;4.67;1.37;;;;;;;26.48;32.29;96820.97;5042260;28;20244;-64
2022/06/21 12:06:42;;;;;;;3.10;1.50;;;;;;;27.18;31.30;96816.50;5029593;28;20352;-64
2022/06/21 12:09:16;;;;;;;2.73;1.50;;;;;;;27.16;30.43;96819.53;5038902;28;20199;-64
2022/06/21 12:11:55;;;;;;;1.57;1.47;;;;;;;27.29;30.50;96817.94;5038210;28;20760;-64
2022/06/21 12:14:32;;;;;;;1.47;1.30;;;;;;;27.01;29.63;96812.47;5011884;28;20461;-66
2022/06/21 12:17:06;;;;;;;1.90;1.63;;;;;;;26.71;29.52;96803.72;4997178;28;20238;-66
2022/06/21 12:19:37;;;;;;;3.07;1.53;;;;;;;26.96;31.06;96795.44;5041454;28;20219;-65
2022/06/21 12:22:13;;;;;;;2.50;1.37;;;;;;;26.95;30.11;96797.38;5041286;28;20257;-64